createdAt,value
2018-06-02T00:01:36.103Z,19.72
2018-06-02T00:04:04.426Z,19.67
2018-06-02T00:06:32.728Z,19.62
2018-06-02T00:09:01.090Z,19.64
2018-06-02T00:11:31.898Z,19.64
2018-06-02T00:14:00.221Z,19.59
2018-06-02T00:16:28.570Z,19.59
2018-06-02T00:18:56.895Z,19.61
2018-06-02T00:21:25.222Z,19.54
2018-06-02T00:23:53.962Z,19.47
2018-06-02T00:26:22.397Z,19.50
2018-06-02T00:28:50.724Z,19.54
2018-06-02T00:31:19.403Z,19.52
2018-06-02T00:33:47.734Z,19.47
2018-06-02T00:36:16.109Z,19.46
2018-06-02T00:38:44.683Z,19.39
2018-06-02T00:41:12.990Z,19.29
2018-06-02T00:43:41.306Z,19.37
2018-06-02T00:46:09.647Z,19.22
2018-06-02T00:48:37.949Z,19.16
2018-06-02T00:51:06.275Z,19.18
2018-06-02T00:53:34.825Z,19.20
2018-06-02T00:56:03.159Z,19.22
2018-06-02T00:58:31.458Z,19.15
2018-06-02T01:01:00.501Z,19.16
2018-06-02T01:03:28.821Z,19.09
2018-06-02T01:05:57.165Z,19.12
2018-06-02T01:08:25.553Z,19.10
2018-06-02T01:10:53.955Z,19.07
2018-06-02T01:13:22.289Z,19.06
2018-06-02T01:15:50.624Z,18.94
2018-06-02T01:18:19.077Z,18.99
2018-06-02T01:20:47.478Z,18.88
2018-06-02T01:23:16.262Z,18.91
2018-06-02T01:25:44.593Z,18.89
2018-06-02T01:28:13.290Z,18.76
2018-06-02T01:30:42.233Z,18.78
2018-06-02T01:33:10.564Z,18.69
2018-06-02T01:35:38.857Z,18.75
2018-06-02T01:38:07.287Z,18.80
2018-06-02T01:40:35.604Z,18.85
2018-06-02T01:43:03.917Z,18.81
2018-06-02T01:45:32.276Z,18.75
2018-06-02T01:48:00.757Z,18.84
2018-06-02T01:50:29.109Z,18.78
2018-06-02T01:52:57.629Z,18.84
2018-06-02T01:55:25.982Z,18.85
2018-06-02T01:57:54.310Z,18.79
2018-06-02T02:00:22.665Z,18.81
2018-06-02T02:02:51.033Z,18.73
2018-06-02T02:05:19.363Z,18.69
2018-06-02T02:07:48.921Z,18.66
2018-06-02T02:10:18.153Z,18.59
2018-06-02T02:12:46.483Z,18.57
2018-06-02T02:15:14.841Z,18.63
2018-06-02T02:17:43.153Z,18.62
2018-06-02T02:20:11.471Z,18.65
2018-06-02T02:22:39.909Z,18.61
2018-06-02T02:25:08.260Z,18.52
2018-06-02T02:27:36.579Z,18.51
2018-06-02T02:30:06.108Z,18.56
2018-06-02T02:32:34.431Z,18.58
2018-06-02T02:35:02.752Z,18.61
2018-06-02T02:37:31.107Z,18.48
2018-06-02T02:39:59.451Z,18.40
2018-06-02T02:42:27.803Z,18.24
2018-06-02T02:44:56.260Z,18.06
2018-06-02T02:47:24.624Z,17.81
2018-06-02T02:49:53.037Z,17.77
2018-06-02T02:52:22.179Z,17.71
2018-06-02T02:54:50.491Z,17.77
2018-06-02T02:57:18.935Z,17.80
2018-06-02T02:59:47.453Z,17.91
2018-06-02T03:02:16.153Z,17.99
2018-06-02T03:04:44.473Z,18.15
2018-06-02T03:07:14.333Z,18.09
2018-06-02T03:09:43.609Z,18.24
2018-06-02T03:12:11.937Z,18.31
2018-06-02T03:14:40.288Z,18.30
2018-06-02T03:17:08.612Z,18.29
2018-06-02T03:19:36.921Z,18.16
2018-06-02T03:22:05.276Z,18.18
2018-06-02T03:24:33.593Z,18.34
2018-06-02T03:27:01.942Z,18.41
2018-06-02T03:29:31.134Z,18.47
2018-06-02T03:31:59.461Z,18.38
2018-06-02T03:34:27.789Z,18.41
2018-06-02T03:36:56.178Z,18.37
2018-06-02T03:39:24.538Z,18.35
2018-06-02T03:41:52.898Z,18.31
2018-06-02T03:44:21.669Z,18.40
2018-06-02T03:46:50.006Z,18.32
2018-06-02T03:49:18.524Z,18.28
2018-06-02T03:51:47.189Z,18.33
2018-06-02T03:54:15.504Z,18.44
2018-06-02T03:56:43.844Z,18.38
2018-06-02T03:59:12.385Z,18.52
2018-06-02T04:01:40.777Z,18.62
2018-06-02T04:04:09.097Z,18.66
2018-06-02T04:06:37.448Z,18.68
2018-06-02T04:09:05.764Z,18.57
2018-06-02T04:11:34.113Z,18.61
2018-06-02T04:14:03.030Z,18.70
2018-06-02T04:16:31.348Z,18.66
2018-06-02T04:18:59.663Z,18.78
2018-06-02T04:21:28.635Z,18.81
2018-06-02T04:23:56.955Z,18.92
2018-06-02T04:26:25.296Z,18.91
2018-06-02T04:28:53.733Z,18.97
2018-06-02T04:31:23.751Z,18.98
2018-06-02T04:33:52.184Z,18.97
2018-06-02T04:36:21.337Z,18.95
2018-06-02T04:38:49.648Z,18.96
2018-06-02T04:41:18.025Z,19.06
2018-06-02T04:43:46.435Z,19.23
2018-06-02T04:46:14.756Z,19.27
2018-06-02T04:48:43.070Z,19.30
2018-06-02T04:51:11.782Z,19.32
2018-06-02T04:53:40.117Z,19.46
2018-06-02T04:56:08.443Z,19.57
2018-06-02T04:58:37.386Z,19.48
2018-06-02T05:01:05.697Z,19.57
2018-06-02T05:03:34.034Z,19.53
2018-06-02T05:06:02.377Z,19.60
2018-06-02T05:08:30.714Z,19.63
2018-06-02T05:10:59.037Z,19.78
2018-06-02T05:13:28.297Z,19.96
2018-06-02T05:15:56.613Z,19.99
2018-06-02T05:18:24.948Z,19.96
2018-06-02T05:20:53.645Z,19.95
2018-06-02T05:23:22.051Z,20.11
2018-06-02T05:25:50.386Z,19.99
2018-06-02T05:28:18.769Z,20.14
2018-06-02T05:30:47.590Z,20.10
2018-06-02T05:33:15.937Z,20.17
2018-06-02T05:35:44.294Z,20.09
2018-06-02T05:38:12.595Z,20.10
2018-06-02T05:40:40.954Z,20.15
2018-06-02T05:43:09.274Z,20.28
2018-06-02T05:45:37.609Z,20.35
2018-06-02T05:48:05.900Z,20.17
2018-06-02T05:50:34.251Z,20.43
2018-06-02T05:53:02.560Z,20.43
2018-06-02T05:55:30.886Z,20.32
2018-06-02T05:57:59.256Z,20.49
2018-06-02T06:00:27.590Z,20.64
2018-06-02T06:02:55.911Z,20.74
2018-06-02T06:05:25.166Z,20.66
2018-06-02T06:07:53.525Z,21.00
2018-06-02T06:10:21.923Z,21.25
2018-06-02T06:12:50.304Z,21.21
2018-06-02T06:15:18.656Z,21.47
2018-06-02T06:17:46.966Z,21.33
2018-06-02T06:20:15.929Z,21.25
2018-06-02T06:22:44.261Z,21.26
2018-06-02T06:25:12.567Z,21.36
2018-06-02T06:27:42.699Z,21.38
2018-06-02T06:30:11.012Z,21.41
2018-06-02T06:32:39.313Z,21.32
2018-06-02T06:35:07.736Z,21.55
2018-06-02T06:37:36.175Z,21.54
2018-06-02T06:40:04.481Z,21.74
2018-06-02T06:42:32.829Z,21.61
2018-06-02T06:45:01.153Z,21.77
2018-06-02T06:47:29.481Z,21.93
2018-06-02T06:49:58.155Z,22.10
2018-06-02T06:52:26.533Z,22.26
2018-06-02T06:54:55.075Z,22.35
2018-06-02T06:57:23.582Z,22.59
2018-06-02T06:59:51.915Z,22.56
2018-06-02T07:02:20.237Z,22.56
2018-06-02T07:04:48.612Z,22.71
2018-06-02T07:07:17.021Z,22.61
2018-06-02T07:09:45.354Z,22.71
2018-06-02T07:12:14.010Z,22.83
2018-06-02T07:14:42.312Z,23.12
2018-06-02T07:17:10.637Z,23.12
2018-06-02T07:19:38.968Z,22.74
2018-06-02T07:22:07.280Z,22.88
2018-06-02T07:24:35.598Z,23.13
2018-06-02T07:27:03.932Z,23.09
2018-06-02T07:29:32.222Z,23.06
2018-06-02T07:32:00.534Z,23.37
2018-06-02T07:34:29.624Z,23.06
2018-06-02T07:36:57.953Z,23.23
2018-06-02T07:39:26.278Z,23.51
2018-06-02T07:41:54.631Z,23.79
2018-06-02T07:44:23.079Z,24.01
2018-06-02T07:46:51.386Z,24.30
2018-06-02T07:49:19.922Z,24.50
2018-06-02T07:51:48.262Z,24.27
2018-06-02T07:54:16.602Z,24.30
2018-06-02T07:56:45.746Z,24.52
2018-06-02T07:59:14.036Z,24.82
2018-06-02T08:01:42.346Z,25.01
2018-06-02T08:04:11.466Z,25.14
2018-06-02T08:06:39.773Z,25.27
2018-06-02T08:09:08.083Z,25.22
2018-06-02T08:11:36.505Z,25.18
2018-06-02T08:14:04.805Z,25.06
2018-06-02T08:16:33.125Z,24.92
2018-06-02T08:19:01.617Z,24.82
2018-06-02T08:21:30.041Z,24.48
2018-06-02T08:23:58.369Z,24.75
2018-06-02T08:26:26.902Z,24.83
2018-06-02T08:28:55.288Z,24.96
2018-06-02T08:31:23.611Z,25.04
2018-06-02T08:33:52.370Z,25.02
2018-06-02T08:36:21.530Z,25.50
2018-06-02T08:38:49.878Z,25.83
2018-06-02T08:41:19.119Z,25.69
2018-06-02T08:43:47.449Z,26.13
2018-06-02T08:46:15.769Z,26.21
2018-06-02T08:48:44.105Z,26.08
2018-06-02T08:51:12.441Z,25.99
2018-06-02T08:53:40.752Z,26.31
2018-06-02T08:56:09.335Z,26.60
2018-06-02T08:58:37.645Z,26.70
2018-06-02T09:01:05.944Z,26.48
2018-06-02T09:03:35.024Z,26.34
2018-06-02T09:06:04.263Z,25.70
2018-06-02T09:08:32.577Z,26.04
2018-06-02T09:11:00.917Z,26.24
2018-06-02T09:13:29.242Z,25.79
2018-06-02T09:15:57.739Z,26.07
2018-06-02T09:18:26.886Z,25.65
2018-06-02T09:20:55.250Z,25.69
2018-06-02T09:23:23.598Z,25.60
2018-06-02T09:25:51.968Z,25.65
2018-06-02T09:28:20.280Z,25.66
2018-06-02T09:30:48.603Z,26.11
2018-06-02T09:33:17.076Z,26.27
2018-06-02T09:35:45.424Z,25.67
2018-06-02T09:38:13.764Z,25.62
2018-06-02T09:40:43.378Z,25.33
2018-06-02T09:43:11.704Z,25.55
2018-06-02T09:45:40.019Z,26.10
2018-06-02T09:48:08.398Z,26.30
2018-06-02T09:50:36.683Z,26.83
2018-06-02T09:53:04.989Z,27.22
2018-06-02T09:55:33.345Z,27.68
2018-06-02T09:58:01.670Z,27.29
2018-06-02T10:00:30.809Z,27.47
2018-06-02T10:02:59.175Z,28.54
2018-06-02T10:05:27.476Z,29.19
2018-06-02T10:07:55.809Z,28.64
2018-06-02T10:10:25.510Z,27.40
2018-06-02T10:12:53.914Z,28.10
2018-06-02T10:15:22.319Z,28.39
2018-06-02T10:17:50.684Z,28.49
2018-06-02T10:20:19.041Z,29.12
2018-06-02T10:22:47.357Z,29.28
2018-06-02T10:25:15.806Z,30.26
2018-06-02T10:27:44.119Z,29.84
2018-06-02T10:30:12.437Z,30.20
2018-06-02T10:32:40.773Z,29.32
2018-06-02T10:35:09.091Z,28.75
2018-06-02T10:37:37.525Z,29.03
2018-06-02T10:40:05.875Z,28.23
2018-06-02T10:42:34.189Z,27.89
2018-06-02T10:45:02.503Z,28.90
2018-06-02T10:47:31.476Z,30.14
2018-06-02T10:49:59.810Z,30.37
2018-06-02T10:52:28.132Z,30.36
2018-06-02T10:54:56.966Z,30.43
2018-06-02T10:57:25.266Z,30.06
2018-06-02T10:59:53.634Z,29.52
2018-06-02T11:02:22.046Z,29.43
2018-06-02T11:04:50.371Z,29.44
2018-06-02T11:07:18.692Z,29.97
2018-06-02T11:09:47.151Z,30.55
2018-06-02T11:12:15.465Z,30.14
2018-06-02T11:14:43.809Z,29.29
2018-06-02T11:17:13.693Z,30.47
2018-06-02T11:19:42.172Z,31.07
2018-06-02T11:22:10.487Z,30.79
2018-06-02T11:24:38.829Z,30.25
2018-06-02T11:27:07.124Z,29.95
2018-06-02T11:29:35.433Z,29.92
2018-06-02T11:32:04.558Z,29.68
2018-06-02T11:34:32.875Z,29.77
2018-06-02T11:37:01.181Z,30.24
2018-06-02T11:39:30.183Z,30.66
2018-06-02T11:41:58.481Z,30.45
2018-06-02T11:44:26.806Z,29.94
2018-06-02T11:46:55.143Z,29.59
2018-06-02T11:49:23.493Z,29.46
2018-06-02T11:51:51.838Z,27.96
2018-06-02T11:54:20.761Z,27.59
2018-06-02T11:56:49.210Z,27.55
2018-06-02T11:59:17.599Z,28.85
2018-06-02T12:01:47.480Z,29.31
2018-06-02T12:04:16.495Z,28.31
2018-06-02T12:06:44.807Z,28.45
2018-06-02T12:09:13.153Z,28.57
2018-06-02T12:11:41.489Z,27.84
2018-06-02T12:14:09.794Z,28.56
2018-06-02T12:16:38.737Z,29.49
2018-06-02T12:19:07.074Z,30.42
2018-06-02T12:21:35.386Z,31.14
2018-06-02T12:24:04.643Z,30.88
2018-06-02T12:26:32.942Z,30.44
2018-06-02T12:29:01.270Z,30.76
2018-06-02T12:31:29.847Z,31.21
2018-06-02T12:33:58.223Z,31.20
2018-06-02T12:36:26.705Z,31.01
2018-06-02T12:38:55.302Z,30.37
2018-06-02T12:41:23.696Z,30.70
2018-06-02T12:43:52.047Z,30.48
2018-06-02T12:46:21.288Z,30.55
2018-06-02T12:48:49.616Z,29.15
2018-06-02T12:51:17.962Z,29.13
2018-06-02T12:53:46.387Z,29.00
2018-06-02T12:56:14.697Z,28.87
2018-06-02T12:58:42.997Z,29.20
2018-06-02T13:01:11.337Z,29.01
2018-06-02T13:03:39.695Z,28.91
2018-06-02T13:06:07.978Z,28.47
2018-06-02T13:08:36.781Z,29.06
2018-06-02T13:11:05.070Z,30.62
2018-06-02T13:13:33.433Z,31.26
2018-06-02T13:16:01.777Z,31.93
2018-06-02T13:18:30.105Z,31.45
2018-06-02T13:20:58.413Z,31.74
2018-06-02T13:23:26.749Z,31.01
2018-06-02T13:25:55.087Z,30.26
2018-06-02T13:28:23.435Z,31.05
2018-06-02T13:30:52.643Z,29.88
2018-06-02T13:33:20.969Z,30.08
2018-06-02T13:35:49.296Z,29.67
2018-06-02T13:38:18.130Z,29.73
2018-06-02T13:40:46.509Z,29.63
2018-06-02T13:43:14.884Z,29.90
2018-06-02T13:45:45.024Z,30.60
2018-06-02T13:48:13.372Z,30.53
2018-06-02T13:50:41.684Z,30.53
2018-06-02T13:53:10.033Z,31.55
2018-06-02T13:55:38.344Z,31.76
2018-06-02T13:58:06.670Z,32.11
2018-06-02T14:00:35.037Z,31.44
2018-06-02T14:03:03.380Z,30.77
2018-06-02T14:05:31.701Z,31.17
2018-06-02T14:08:00.627Z,31.68
2018-06-02T14:10:28.953Z,32.02
2018-06-02T14:12:57.278Z,31.81
2018-06-02T14:15:25.633Z,31.44
2018-06-02T14:17:53.980Z,31.05
2018-06-02T14:20:22.389Z,31.15
2018-06-02T14:22:50.848Z,30.75
2018-06-02T14:25:19.166Z,30.76
2018-06-02T14:27:47.611Z,30.82
2018-06-02T14:30:16.786Z,30.42
2018-06-02T14:32:45.117Z,30.08
2018-06-02T14:35:13.444Z,29.90
2018-06-02T14:37:42.226Z,29.72
2018-06-02T14:40:10.514Z,29.43
2018-06-02T14:42:38.910Z,29.20
2018-06-02T14:45:07.461Z,29.04
2018-06-02T14:47:35.804Z,29.01
2018-06-02T14:50:04.123Z,28.80
2018-06-02T14:52:34.149Z,28.30
2018-06-02T14:55:02.528Z,28.14
2018-06-02T14:57:30.785Z,27.79
2018-06-02T14:59:59.920Z,27.69
2018-06-02T15:02:28.329Z,27.68
2018-06-02T15:04:56.636Z,27.37
2018-06-02T15:07:25.777Z,27.44
2018-06-02T15:09:54.181Z,27.80
2018-06-02T15:12:22.574Z,28.33
2018-06-02T15:14:51.005Z,28.57
2018-06-02T15:17:19.434Z,28.46
2018-06-02T15:19:47.791Z,27.92
2018-06-02T15:22:16.215Z,27.59
2018-06-02T15:24:44.552Z,27.23
2018-06-02T15:27:12.920Z,26.80
2018-06-02T15:29:41.530Z,26.67
2018-06-02T15:32:09.860Z,26.74
2018-06-02T15:34:38.214Z,27.13
2018-06-02T15:37:06.987Z,27.48
2018-06-02T15:39:35.305Z,27.44
2018-06-02T15:42:03.615Z,27.21
2018-06-02T15:44:32.836Z,26.77
2018-06-02T15:47:01.193Z,26.05
2018-06-02T15:49:29.519Z,25.68
2018-06-02T15:51:58.152Z,25.56
2018-06-02T15:54:26.538Z,25.31
2018-06-02T15:56:55.087Z,25.12
2018-06-02T15:59:23.504Z,25.07
2018-06-02T16:01:51.855Z,24.81
2018-06-02T16:04:20.273Z,24.78
2018-06-02T16:06:49.537Z,24.75
2018-06-02T16:09:17.881Z,24.80
2018-06-02T16:11:46.236Z,24.72
2018-06-02T16:14:14.571Z,24.65
2018-06-02T16:16:42.933Z,24.50
2018-06-02T16:19:11.291Z,24.41
2018-06-02T16:21:39.626Z,24.32
2018-06-02T16:24:07.985Z,24.46
2018-06-02T16:26:36.300Z,24.38
2018-06-02T16:29:04.648Z,24.23
2018-06-02T16:31:32.980Z,24.16
2018-06-02T16:34:01.342Z,24.23
2018-06-02T16:36:29.770Z,24.12
2018-06-02T16:38:58.196Z,24.05
2018-06-02T16:41:26.599Z,23.98
2018-06-02T16:43:54.993Z,23.87
2018-06-02T16:46:23.908Z,23.78
2018-06-02T16:48:52.321Z,23.75
2018-06-02T16:51:21.559Z,23.61
2018-06-02T16:53:50.036Z,23.55
2018-06-02T16:56:18.441Z,23.54
2018-06-02T16:58:47.230Z,23.52
2018-06-02T17:01:15.584Z,23.58
2018-06-02T17:03:43.927Z,23.66
2018-06-02T17:06:12.256Z,23.76
2018-06-02T17:08:40.596Z,23.97
2018-06-02T17:11:08.926Z,23.92
2018-06-02T17:13:38.329Z,23.78
2018-06-02T17:16:06.660Z,23.78
2018-06-02T17:18:34.979Z,23.76
2018-06-02T17:21:03.746Z,23.68
2018-06-02T17:23:32.097Z,23.57
2018-06-02T17:26:00.491Z,23.44
2018-06-02T17:28:29.343Z,23.40
2018-06-02T17:30:57.801Z,23.44
2018-06-02T17:33:26.179Z,23.42
2018-06-02T17:35:54.681Z,23.27
2018-06-02T17:38:23.162Z,23.16
2018-06-02T17:40:51.849Z,23.18
2018-06-02T17:43:20.229Z,23.26
2018-06-02T17:45:48.608Z,23.27
2018-06-02T17:48:16.967Z,23.24
2018-06-02T17:50:45.349Z,23.14
2018-06-02T17:53:13.663Z,23.12
2018-06-02T17:55:42.013Z,23.05
2018-06-02T17:58:10.368Z,22.97
2018-06-02T18:00:38.694Z,23.01
2018-06-02T18:03:07.033Z,22.97
2018-06-02T18:05:35.377Z,22.92
2018-06-02T18:08:03.713Z,22.97
2018-06-02T18:10:32.177Z,22.99
2018-06-02T18:13:01.211Z,23.02
2018-06-02T18:15:29.523Z,23.01
2018-06-02T18:17:57.951Z,22.96
2018-06-02T18:20:26.432Z,22.80
2018-06-02T18:22:54.745Z,22.65
2018-06-02T18:25:23.182Z,22.64
2018-06-02T18:27:52.131Z,22.64
2018-06-02T18:30:20.776Z,22.58
2018-06-02T18:32:49.246Z,22.41
2018-06-02T18:35:18.015Z,22.27
2018-06-02T18:37:46.438Z,22.11
2018-06-02T18:40:14.770Z,22.05
2018-06-02T18:42:43.916Z,21.94
2018-06-02T18:45:12.262Z,21.93
2018-06-02T18:47:41.510Z,21.94
2018-06-02T18:50:09.897Z,21.93
2018-06-02T18:52:38.215Z,21.87
2018-06-02T18:55:06.548Z,21.87
2018-06-02T18:57:35.807Z,21.83
2018-06-02T19:00:04.162Z,21.80
2018-06-02T19:02:32.538Z,21.76
2018-06-02T19:05:00.921Z,21.73
2018-06-02T19:07:29.517Z,21.72
2018-06-02T19:09:57.888Z,21.69
2018-06-02T19:12:27.021Z,21.61
2018-06-02T19:14:55.373Z,21.53
2018-06-02T19:17:23.752Z,21.44
2018-06-02T19:19:53.009Z,21.33
2018-06-02T19:22:21.517Z,21.26
2018-06-02T19:24:49.945Z,21.18
2018-06-02T19:27:18.507Z,21.17
2018-06-02T19:29:46.947Z,21.19
2018-06-02T19:32:15.341Z,21.15
2018-06-02T19:34:43.782Z,21.09
2018-06-02T19:37:12.118Z,21.01
2018-06-02T19:39:40.434Z,20.94
2018-06-02T19:42:08.808Z,20.93
2018-06-02T19:44:37.133Z,20.89
2018-06-02T19:47:05.497Z,20.75
2018-06-02T19:49:33.850Z,20.68
2018-06-02T19:52:02.244Z,20.58
2018-06-02T19:54:30.684Z,20.53
2018-06-02T19:56:59.845Z,20.51
2018-06-02T19:59:28.340Z,20.50
2018-06-02T20:01:56.796Z,20.47
2018-06-02T20:04:25.209Z,20.44
2018-06-02T20:06:53.585Z,20.33
2018-06-02T20:09:21.951Z,20.25
2018-06-02T20:11:50.333Z,20.12
2018-06-02T20:14:18.829Z,20.03
2018-06-02T20:16:47.561Z,19.91
2018-06-02T20:19:16.016Z,19.81
2018-06-02T20:21:44.337Z,19.75
2018-06-02T20:24:12.671Z,19.70
2018-06-02T20:26:41.750Z,19.72
2018-06-02T20:29:10.718Z,19.63
2018-06-02T20:31:39.031Z,19.56
2018-06-02T20:34:07.683Z,19.53
2018-06-02T20:36:36.099Z,19.51
2018-06-02T20:39:04.472Z,19.50
2018-06-02T20:41:33.539Z,19.50
2018-06-02T20:44:01.876Z,19.54
2018-06-02T20:46:30.228Z,19.55
2018-06-02T20:48:58.880Z,19.47
2018-06-02T20:51:27.226Z,19.48
2018-06-02T20:53:55.542Z,19.45
2018-06-02T20:56:24.025Z,19.44
2018-06-02T20:58:52.402Z,19.40
2018-06-02T21:01:20.800Z,19.40
2018-06-02T21:03:50.307Z,19.39
2018-06-02T21:06:18.820Z,19.43
2018-06-02T21:08:47.434Z,19.40
2018-06-02T21:11:15.849Z,19.42
2018-06-02T21:13:44.175Z,19.41
2018-06-02T21:16:12.501Z,19.43
2018-06-02T21:18:40.879Z,19.46
2018-06-02T21:21:09.199Z,19.45
2018-06-02T21:23:37.507Z,19.40
2018-06-02T21:26:07.733Z,19.40
2018-06-02T21:28:36.096Z,19.40
2018-06-02T21:31:04.454Z,19.37
2018-06-02T21:33:33.145Z,19.29
2018-06-02T21:36:01.474Z,19.35
2018-06-02T21:38:29.794Z,19.40
2018-06-02T21:40:58.289Z,19.42
2018-06-02T21:43:26.658Z,19.47
2018-06-02T21:45:55.069Z,19.50
2018-06-02T21:48:23.536Z,19.52
2018-06-02T21:50:52.214Z,19.51
2018-06-02T21:53:20.608Z,19.43
2018-06-02T21:55:49.289Z,19.37
2018-06-02T21:58:17.859Z,19.31
2018-06-02T22:00:46.229Z,19.27
2018-06-02T22:03:16.117Z,19.13
2018-06-02T22:05:44.425Z,19.09
2018-06-02T22:08:12.729Z,19.05
2018-06-02T22:10:41.606Z,19.04
2018-06-02T22:13:09.971Z,19.00
2018-06-02T22:15:38.265Z,18.95
2018-06-02T22:18:07.136Z,18.91
2018-06-02T22:20:35.452Z,18.83
2018-06-02T22:23:03.792Z,18.77
2018-06-02T22:25:33.403Z,18.69
2018-06-02T22:28:01.838Z,18.69
2018-06-02T22:30:30.256Z,18.67
2018-06-02T22:32:58.975Z,18.60
2018-06-02T22:35:27.552Z,18.55
2018-06-02T22:37:56.127Z,18.50
2018-06-02T22:40:25.452Z,18.47
2018-06-02T22:42:54.135Z,18.47
2018-06-02T22:45:22.476Z,18.46
2018-06-02T22:47:51.878Z,18.40
2018-06-02T22:50:20.299Z,18.36
2018-06-02T22:52:50.253Z,18.30
2018-06-02T22:55:19.664Z,18.24
2018-06-02T22:57:48.067Z,18.19
2018-06-02T23:00:21.243Z,18.23
2018-06-02T23:02:49.624Z,18.25
2018-06-02T23:05:18.080Z,18.24
2018-06-02T23:07:47.586Z,18.28
2018-06-02T23:10:15.899Z,18.33
2018-06-02T23:12:44.214Z,18.39
2018-06-02T23:15:12.945Z,18.44
2018-06-02T23:17:41.277Z,18.45
2018-06-02T23:20:09.654Z,18.49
2018-06-02T23:22:38.817Z,18.51
2018-06-02T23:25:07.908Z,18.49
2018-06-02T23:27:36.219Z,18.51
2018-06-02T23:30:05.527Z,18.53
2018-06-02T23:32:33.862Z,18.49
2018-06-02T23:35:02.202Z,18.49
2018-06-02T23:37:31.117Z,18.48
2018-06-02T23:39:59.445Z,18.46
2018-06-02T23:42:27.811Z,18.49
2018-06-02T23:44:56.172Z,18.44
2018-06-02T23:47:24.526Z,18.42
2018-06-02T23:49:52.913Z,18.39
2018-06-02T23:52:21.286Z,18.34
2018-06-02T23:54:49.682Z,18.32
2018-06-02T23:57:18.041Z,18.28
2018-06-02T23:59:46.456Z,18.32
